Airfield :
LOGIN :

Register | Disclaimer

   EN    FR    IT 

 










Legend :    VFR   Marginal VFR   IFR   Intensive IFR   Very Intensive IFR
Visi :
Ceiling :
>= 8 km
>= 3000ft
5 to 8 km
1000 to 3000 ft
1500m to 5 km
500 to 1000 ft
800 to 1500m
200 to 500 ft
< 800m
< 200 ft
Symbols :   Thunderstorms  Fog  Heavy snow  Heavy precipitations  Wind > 20 kt
SIGMETs :     Misc.  Thunderstorms  Icing  Turbulence  Mountain Waves  Volcanic Ashes







- Airport Elevation : 355 ft
- IATA code : VBS


LIPO - Montichiari - Brescia

CURRENT METAR :
  • 231850Z 06011KT 5000 BR BKN060 13/11 Q1018 RETS RERA

EXPIRED METARs :
  • 231750Z 25008KT 3000 TSRA FEW040CB BKN050 13/10 Q1018
  • 231718Z 28007KT 3000 TSRA FEW040CB BKN050 14/12 Q1017
  • 231650Z 03006KT 5000 RA BR BKN060 15/11 Q1016

TAF TAF LIPO
Valid from the 23 at 18:00 until the 24 at 18:00 UTC


231700Z 2318/2418 09007KT 4000 BR SCT015 BKN040
TEMPO 2318/2323 2500 SHRA
No reported NOTAMs for that airfield.
3 SIGMETs reported for the Milano FIR (LIMM) :
 
Severe turbulence
LIMM SIGMET 4 VALID 231940/232240 LIMM- LIMM MILANO FIR SEV TURB FCST WI N4619 E00941 - N4625 E00816 - N4545 E00639 - N4427 E00654 - N4352 E00720 - N4310 E00948 - N4337 E01017 - N4345 E01137 - N4522 E01031 - N4533 E00937 - N4619 E00941 ABV FL280 STNR NC=
Embedded thunderstorms
LIMM SIGMET 3 VALID 231935/232135 LIMM- LIMM MILANO FIR EMBD TS OBS WI N4542 E00854 - N4606 E01038 - N4511 E01139 - N4453 E00900 - N4542 E00854 TOP FL330 MOV ENE NC=
Severe turbulence
LIMM SIGMET 2 VALID 231925/232225 LIMM- LIMM MILANO FIR SEV TURB OBS WI N4615 E01023 - N4632 E01129 - N4630 E01205 - N4518 E01141 - N4534 E00945 - N4606 E00948 - N4615 E01023 FL360 STNR NC=



MET'MAP, your aeronautical weather chart ! - Copyright ORBIFLY December 2007 - Disclaimer

ORBIFLY MET'MAP TEAM :

Programming & Development : Alexandra Zaïnal
Concept & Development : Baudouin d'Aumeries
Co-Development & Prog : Marc-Olivier Méhu
Technical & hardware support : Manuel Goepfert

Contact : metmap@orbifly.com




SOURCES & CREDITS :

   NOAA